This is the latest recevied weather packets stored in our database for station/object KG7FOQ-13. If no packets are shown the sender has not sent any weather packets the latest 10 day(s).
| Time | Temp. | Humidity | Pressure | Rain* | Wind** | Luminosity | Snow |
|---|---|---|---|---|---|---|---|
| 1778008695 | 18.33° C | 39% | 1009.5 hPa | 0 mm | - | - | - |
| 1778008395 | 17.22° C | 38% | 1009.3 hPa | 0 mm | - | - | - |
| 1778008094 | 17.22° C | 38% | 1009.3 hPa | 0 mm | - | - | - |
| 1778007793 | 17.22° C | 39% | 1009.3 hPa | 0 mm | - | - | - |
| 1778007493 | 17.22° C | 43% | 1009.3 hPa | 0 mm | - | - | - |
| 1778007192 | 16.67° C | 43% | 1009.3 hPa | 0 mm | - | - | - |
| 1778006591 | 16.67° C | 44% | 1009.3 hPa | 0 mm | - | - | - |
| 1778005990 | 16.67° C | 45% | 1009.5 hPa | 0 mm | - | - | - |
| 1778005690 | 16.11° C | 44% | 1009.5 hPa | 0 mm | - | - | - |
| 1778005389 | 15.56° C | 45% | 1009.5 hPa | 0 mm | - | - | - |
| 1778005089 | 16.11° C | 50% | 1009.5 hPa | 0 mm | - | - | - |
| 1778004788 | 16.67° C | 50% | 1009.5 hPa | 0 mm | - | - | - |
| 1778004488 | 15.56° C | 48% | 1009.6 hPa | 0 mm | - | - | - |
| 1778004187 | 15.56° C | 47% | 1009.6 hPa | 0 mm | - | - | - |
| 1778003887 | 16.11° C | 47% | 1009.7 hPa | 0 mm | - | - | - |
| 1778003586 | 16.11° C | 49% | 1009.7 hPa | 0 mm | - | - | - |
| 1778003286 | 15.56° C | 48% | 1009.8 hPa | 0 mm | - | - | - |
| 1778002985 | 15.56° C | 48% | 1009.7 hPa | 0 mm | - | - | - |
| 1778002685 | 15.56° C | 47% | 1009.7 hPa | 0 mm | - | - | - |
| 1778002384 | 14.44° C | 47% | 1009.7 hPa | 0 mm | - | - | - |
| 1778002084 | 14.44° C | 47% | 1009.7 hPa | 0 mm | - | - | - |
| 1778001783 | 15° C | 49% | 1009.7 hPa | 0 mm | - | - | - |
| 1778001481 | 14.44° C | 48% | 1009.7 hPa | 0 mm | - | - | - |
| 1778001181 | 13.89° C | 48% | 1009.8 hPa | 0 mm | - | - | - |
| 1778000879 | 13.89° C | 48% | 1009.8 hPa | 0 mm | - | - | - |
* Rain latest hour (hover to see other rain measurements)
** Current wind speed in m/s (hover to see current wind gust speed)